Time;durP1;ratioP1;P1;durP2;ratioP2;P2;SDS_P1;SDS_P2;PMS_P1;PMS_P2;Temp;Humidity;BMP_temperature;BMP_pressure;BME280_temperature;BME280_humidity;BME280_pressure;Samples;Min_cycle;Max_cycle;Signal;HPM_P1;HPM_P2
2023/05/29 00:00:47;;;;;;;7.38;5.00;;;;;;;;;;4970895;28;20059;-74
2023/05/29 00:03:13;;;;;;;7.95;4.50;;;;;;;;;;4955153;28;20051;-74
2023/05/29 00:05:40;;;;;;;9.52;4.97;;;;;;;;;;4954991;28;20122;-74
2023/05/29 00:08:07;;;;;;;7.90;4.65;;;;;;;;;;4971140;28;20121;-74
2023/05/29 00:10:35;;;;;;;8.63;4.53;;;;;;;;;;4954708;28;20499;-74
2023/05/29 00:13:02;;;;;;;11.18;4.40;;;;;;;;;;4971123;28;20133;-74
2023/05/29 00:15:31;;;;;;;9.63;5.05;;;;;;;;;;4972999;28;20051;-74
2023/05/29 00:17:58;;;;;;;7.90;4.82;;;;;;;;;;4991030;28;20047;-76
2023/05/29 00:20:25;;;;;;;10.45;4.68;;;;;;;;;;4974560;28;20057;-74
2023/05/29 00:22:52;;;;;;;7.72;5.00;;;;;;;;;;4990980;28;20431;-74
2023/05/29 00:25:18;;;;;;;7.70;5.05;;;;;;;;;;4990779;28;20050;-75
2023/05/29 00:27:45;;;;;;;7.22;4.45;;;;;;;;;;4974783;28;20105;-74
2023/05/29 00:30:12;;;;;;;9.18;4.53;;;;;;;;;;4978720;28;20085;-74
2023/05/29 00:32:39;;;;;;;8.52;4.88;;;;;;;;;;4981436;28;20050;-75
2023/05/29 00:35:06;;;;;;;10.65;4.97;;;;;;;;;;4997490;28;20096;-74
2023/05/29 00:37:33;;;;;;;8.63;5.03;;;;;;;;;;4981129;28;20057;-75
2023/05/29 00:40:00;;;;;;;6.55;4.20;;;;;;;;;;4997077;28;20052;-75
2023/05/29 00:42:27;;;;;;;7.15;3.72;;;;;;;;;;5013617;28;20461;-74
2023/05/29 00:44:54;;;;;;;14.25;4.97;;;;;;;;;;4997416;28;20119;-75
2023/05/29 00:47:20;;;;;;;7.20;4.05;;;;;;;;;;4981094;28;20100;-75
2023/05/29 00:49:47;;;;;;;6.95;4.53;;;;;;;;;;4997374;28;20081;-75
2023/05/29 00:52:14;;;;;;;9.82;4.97;;;;;;;;;;4996816;28;20085;-75
2023/05/29 00:54:43;;;;;;;7.72;4.57;;;;;;;;;;4981758;28;20101;-75
2023/05/29 00:57:11;;;;;;;7.82;3.97;;;;;;;;;;4974157;28;20117;-74
2023/05/29 00:59:37;;;;;;;8.45;4.45;;;;;;;;;;4990097;28;20093;-75
2023/05/29 01:02:04;;;;;;;8.00;4.50;;;;;;;;;;4974062;28;20054;-74
2023/05/29 01:04:33;;;;;;;8.77;4.32;;;;;;;;;;4990194;28;20105;-74
2023/05/29 01:07:02;;;;;;;9.25;4.78;;;;;;;;;;4990984;28;20058;-74
2023/05/29 01:09:30;;;;;;;7.15;3.83;;;;;;;;;;4977415;28;20061;-74
2023/05/29 01:12:07;;;;;;;9.55;4.30;;;;;;;;;;4977232;28;20054;-74
2023/05/29 01:15:05;;;;;;;8.07;3.95;;;;;;;;;;4991350;28;20059;-73
2023/05/29 01:17:41;;;;;;;10.88;4.80;;;;;;;;;;5009553;28;20054;-75
2023/05/29 01:20:41;;;;;;;8.40;4.10;;;;;;;;;;5026098;28;20057;-74
2023/05/29 01:23:27;;;;;;;8.27;4.35;;;;;;;;;;4997319;28;20124;-74
2023/05/29 01:26:25;;;;;;;6.15;3.63;;;;;;;;;;5028732;28;20089;-74
2023/05/29 01:28:53;;;;;;;7.05;3.58;;;;;;;;;;5013209;28;20064;-75
2023/05/29 01:31:22;;;;;;;8.18;4.05;;;;;;;;;;4980352;28;20498;-74
2023/05/29 01:33:56;;;;;;;9.25;4.57;;;;;;;;;;4980102;28;20520;-75
2023/05/29 01:36:24;;;;;;;9.60;4.55;;;;;;;;;;4980245;28;20046;-74
2023/05/29 01:38:51;;;;;;;5.00;3.53;;;;;;;;;;4980335;28;20209;-75
2023/05/29 01:41:19;;;;;;;5.53;3.55;;;;;;;;;;4979921;28;20081;-74
2023/05/29 01:43:46;;;;;;;6.07;3.75;;;;;;;;;;4980336;28;20050;-74
2023/05/29 01:46:13;;;;;;;5.57;3.30;;;;;;;;;;4980076;28;20056;-74
2023/05/29 01:48:44;;;;;;;7.47;4.20;;;;;;;;;;4996040;28;20061;-76
2023/05/29 01:51:12;;;;;;;8.07;3.78;;;;;;;;;;4980535;28;20057;-75
2023/05/29 01:53:39;;;;;;;6.28;4.05;;;;;;;;;;4980100;28;20050;-74
2023/05/29 01:56:06;;;;;;;6.30;3.97;;;;;;;;;;4979941;28;20943;-74
2023/05/29 01:58:38;;;;;;;6.97;3.60;;;;;;;;;;5012332;28;20065;-74
2023/05/29 02:01:06;;;;;;;7.65;4.25;;;;;;;;;;4984969;28;20063;-74
2023/05/29 02:03:33;;;;;;;6.32;3.92;;;;;;;;;;4980104;28;20053;-74
2023/05/29 02:06:00;;;;;;;7.93;3.80;;;;;;;;;;4979764;28;20108;-74
2023/05/29 02:08:27;;;;;;;7.40;4.15;;;;;;;;;;4979714;28;20073;-73
2023/05/29 02:10:55;;;;;;;6.38;4.60;;;;;;;;;;4979832;28;20122;-74
2023/05/29 02:13:21;;;;;;;6.18;3.85;;;;;;;;;;4979740;28;20060;-74
2023/05/29 02:15:48;;;;;;;5.38;3.67;;;;;;;;;;4975395;28;20491;-74
2023/05/29 02:18:17;;;;;;;6.63;4.15;;;;;;;;;;4976094;28;20112;-74
2023/05/29 02:20:44;;;;;;;7.13;3.95;;;;;;;;;;4975972;28;20054;-73
2023/05/29 02:23:11;;;;;;;7.32;4.15;;;;;;;;;;4976015;28;20054;-74
2023/05/29 02:25:38;;;;;;;6.97;4.57;;;;;;;;;;4959952;28;20077;-74
2023/05/29 02:28:05;;;;;;;8.48;4.32;;;;;;;;;;4992179;28;20423;-75
2023/05/29 02:30:32;;;;;;;6.85;4.25;;;;;;;;;;4975503;28;20054;-75
2023/05/29 02:32:59;;;;;;;6.38;4.53;;;;;;;;;;4976080;28;20101;-74
2023/05/29 02:35:27;;;;;;;7.47;4.43;;;;;;;;;;4975690;28;20089;-75
2023/05/29 02:37:54;;;;;;;8.30;4.57;;;;;;;;;;4959125;28;20089;-74
2023/05/29 02:40:21;;;;;;;6.90;4.10;;;;;;;;;;4975516;28;20101;-74
2023/05/29 02:42:47;;;;;;;6.47;4.55;;;;;;;;;;4975644;28;20049;-74
2023/05/29 02:45:14;;;;;;;10.45;4.60;;;;;;;;;;4978428;28;20053;-74
2023/05/29 02:47:41;;;;;;;7.25;4.50;;;;;;;;;;4994610;28;20049;-74
2023/05/29 02:50:09;;;;;;;8.88;4.90;;;;;;;;;;4978756;28;20085;-74
2023/05/29 02:52:39;;;;;;;9.65;4.82;;;;;;;;;;4979124;28;20490;-74
2023/05/29 02:55:06;;;;;;;8.45;4.38;;;;;;;;;;4979815;28;20502;-74
2023/05/29 02:57:33;;;;;;;10.27;4.47;;;;;;;;;;4994796;28;20076;-74
2023/05/29 03:00:00;;;;;;;8.20;4.30;;;;;;;;;;5009187;28;20096;-73
2023/05/29 03:02:27;;;;;;;9.55;4.82;;;;;;;;;;4995056;28;20136;-74
2023/05/29 03:04:54;;;;;;;8.45;4.70;;;;;;;;;;4994799;28;20053;-74
2023/05/29 03:07:21;;;;;;;7.97;4.93;;;;;;;;;;4994370;28;20156;-74
2023/05/29 03:09:48;;;;;;;7.50;4.93;;;;;;;;;;4994691;28;20053;-75
2023/05/29 03:12:15;;;;;;;5.32;4.20;;;;;;;;;;5010835;28;20054;-75
2023/05/29 03:14:41;;;;;;;8.13;5.10;;;;;;;;;;5000745;28;20064;-75
2023/05/29 03:17:08;;;;;;;7.30;5.45;;;;;;;;;;4939902;28;20105;-74
2023/05/29 03:19:35;;;;;;;7.28;4.63;;;;;;;;;;4955831;28;20105;-74
2023/05/29 03:22:02;;;;;;;8.15;4.80;;;;;;;;;;4955448;28;20503;-74
2023/05/29 03:24:29;;;;;;;13.15;6.00;;;;;;;;;;4955719;28;20108;-74
2023/05/29 03:26:56;;;;;;;8.57;5.28;;;;;;;;;;4955622;28;20097;-74
2023/05/29 03:29:22;;;;;;;7.55;4.82;;;;;;;;;;4978200;28;20050;-72
2023/05/29 03:31:49;;;;;;;8.93;4.90;;;;;;;;;;4974793;28;20058;-75
2023/05/29 03:34:16;;;;;;;9.10;4.97;;;;;;;;;;4959009;28;20050;-74
2023/05/29 03:36:43;;;;;;;7.93;5.22;;;;;;;;;;4975136;28;20051;-73
2023/05/29 03:39:13;;;;;;;7.70;5.00;;;;;;;;;;4974972;28;20462;-73
2023/05/29 03:41:40;;;;;;;8.23;4.88;;;;;;;;;;4971156;28;20134;-73
2023/05/29 03:44:07;;;;;;;9.13;4.97;;;;;;;;;;4987577;28;20128;-74
2023/05/29 03:46:33;;;;;;;7.88;4.30;;;;;;;;;;4987332;28;20120;-74
2023/05/29 03:49:00;;;;;;;9.40;5.30;;;;;;;;;;4987551;28;20414;-73
2023/05/29 03:51:27;;;;;;;8.20;5.07;;;;;;;;;;4956787;28;20054;-73
2023/05/29 03:53:54;;;;;;;9.10;4.72;;;;;;;;;;4990753;28;20077;-74
2023/05/29 03:56:21;;;;;;;7.38;4.72;;;;;;;;;;4990429;28;20054;-73
2023/05/29 03:58:48;;;;;;;7.50;5.18;;;;;;;;;;4990641;28;20078;-73
2023/05/29 04:01:15;;;;;;;7.80;5.50;;;;;;;;;;4974280;28;20101;-74
2023/05/29 04:03:43;;;;;;;8.70;5.60;;;;;;;;;;4974575;28;20502;-73
2023/05/29 04:06:11;;;;;;;9.55;4.90;;;;;;;;;;4974722;28;20053;-74
2023/05/29 04:08:38;;;;;;;11.75;5.53;;;;;;;;;;4974550;28;20105;-74
2023/05/29 04:11:05;;;;;;;7.15;5.13;;;;;;;;;;4974325;28;20494;-75
2023/05/29 04:13:31;;;;;;;8.45;5.25;;;;;;;;;;4977510;28;20054;-74
2023/05/29 04:15:58;;;;;;;9.60;5.15;;;;;;;;;;4962792;28;20105;-74
2023/05/29 04:18:25;;;;;;;8.63;5.72;;;;;;;;;;4992878;28;20050;-74
2023/05/29 04:20:53;;;;;;;8.93;5.75;;;;;;;;;;4977970;28;20104;-73
2023/05/29 04:23:20;;;;;;;7.45;5.40;;;;;;;;;;4978277;28;20473;-74
2023/05/29 04:25:50;;;;;;;9.68;5.40;;;;;;;;;;4977983;28;20100;-74
2023/05/29 04:28:20;;;;;;;9.93;5.72;;;;;;;;;;5011062;28;20112;-74
2023/05/29 04:30:47;;;;;;;9.45;5.90;;;;;;;;;;4986609;28;20522;-74
2023/05/29 04:33:15;;;;;;;10.48;5.72;;;;;;;;;;4975073;28;20057;-74
2023/05/29 04:35:45;;;;;;;10.88;6.45;;;;;;;;;;4974882;28;20054;-74
2023/05/29 04:38:12;;;;;;;9.82;5.63;;;;;;;;;;5000555;28;20054;-74
2023/05/29 04:40:40;;;;;;;8.82;5.43;;;;;;;;;;5009857;28;20450;-74
2023/05/29 04:43:07;;;;;;;13.75;6.38;;;;;;;;;;4978294;28;20062;-73
2023/05/29 04:45:36;;;;;;;8.63;5.85;;;;;;;;;;4991611;28;20072;-73
2023/05/29 04:48:04;;;;;;;10.52;6.07;;;;;;;;;;4983279;28;20518;-73
2023/05/29 04:50:31;;;;;;;10.23;6.20;;;;;;;;;;4975933;28;20141;-74
2023/05/29 04:52:58;;;;;;;11.35;6.78;;;;;;;;;;4990128;28;20108;-75
2023/05/29 04:55:25;;;;;;;10.07;5.93;;;;;;;;;;4987622;28;20062;-75
2023/05/29 04:57:52;;;;;;;8.93;6.15;;;;;;;;;;4945951;28;20046;-74
2023/05/29 05:00:20;;;;;;;9.98;5.80;;;;;;;;;;4989645;28;20050;-77
2023/05/29 05:02:48;;;;;;;8.40;5.32;;;;;;;;;;4977765;28;20100;-75
2023/05/29 05:05:15;;;;;;;8.60;5.57;;;;;;;;;;4962183;28;20475;-74
2023/05/29 05:07:42;;;;;;;7.03;5.75;;;;;;;;;;4969808;28;20519;-75
2023/05/29 05:10:09;;;;;;;9.73;5.45;;;;;;;;;;4978181;28;20054;-75
2023/05/29 05:12:36;;;;;;;10.30;6.07;;;;;;;;;;4958788;28;20105;-73
2023/05/29 05:15:04;;;;;;;10.30;5.88;;;;;;;;;;4958698;28;20086;-73
2023/05/29 05:17:31;;;;;;;9.63;5.72;;;;;;;;;;4960703;28;20062;-73
2023/05/29 05:19:58;;;;;;;6.38;5.30;;;;;;;;;;4971050;28;20042;-73
2023/05/29 05:22:25;;;;;;;6.90;5.32;;;;;;;;;;4975907;28;20075;-74
2023/05/29 05:24:54;;;;;;;9.35;4.80;;;;;;;;;;4974709;28;20050;-73
2023/05/29 05:27:21;;;;;;;8.57;5.45;;;;;;;;;;4992941;28;20050;-73
2023/05/29 05:29:47;;;;;;;10.02;5.05;;;;;;;;;;4958502;28;20062;-73
2023/05/29 05:32:14;;;;;;;9.80;5.20;;;;;;;;;;4989821;28;20078;-73
2023/05/29 05:34:41;;;;;;;8.45;4.82;;;;;;;;;;4990204;28;20507;-73
2023/05/29 05:37:08;;;;;;;7.13;4.80;;;;;;;;;;4990245;28;20054;-73
2023/05/29 05:39:35;;;;;;;7.65;4.75;;;;;;;;;;4979737;28;20089;-74
2023/05/29 05:42:02;;;;;;;9.18;4.78;;;;;;;;;;5029558;28;20684;-73
2023/05/29 05:44:29;;;;;;;10.10;5.10;;;;;;;;;;5001301;28;20469;-73
2023/05/29 05:46:56;;;;;;;8.45;4.65;;;;;;;;;;4996605;28;20046;-73
2023/05/29 05:49:22;;;;;;;7.97;4.78;;;;;;;;;;4980101;28;20073;-73
2023/05/29 05:51:50;;;;;;;9.32;5.05;;;;;;;;;;4981461;28;20113;-73
2023/05/29 05:54:17;;;;;;;6.18;4.93;;;;;;;;;;5016367;28;20050;-72
2023/05/29 05:56:45;;;;;;;9.38;5.43;;;;;;;;;;5022058;28;20076;-72
2023/05/29 05:59:12;;;;;;;7.43;4.55;;;;;;;;;;5005994;28;20058;-73
2023/05/29 06:01:41;;;;;;;8.68;4.78;;;;;;;;;;5021779;28;20046;-73
2023/05/29 06:04:08;;;;;;;8.35;5.05;;;;;;;;;;4981604;28;20123;-73
2023/05/29 06:06:35;;;;;;;9.80;4.90;;;;;;;;;;4996584;28;20135;-73
2023/05/29 06:09:04;;;;;;;6.18;4.68;;;;;;;;;;5012257;28;20395;-73
2023/05/29 06:11:31;;;;;;;8.02;5.40;;;;;;;;;;4959857;28;20066;-74
2023/05/29 06:13:58;;;;;;;6.28;4.47;;;;;;;;;;4975138;28;20085;-74
2023/05/29 06:16:25;;;;;;;6.45;4.82;;;;;;;;;;4974117;28;20066;-75
2023/05/29 06:18:52;;;;;;;8.45;4.97;;;;;;;;;;5008448;28;20054;-74
2023/05/29 06:21:19;;;;;;;8.48;4.38;;;;;;;;;;5001367;28;20061;-73
2023/05/29 06:23:46;;;;;;;6.47;4.53;;;;;;;;;;4989965;28;20569;-75
2023/05/29 06:26:13;;;;;;;7.97;4.05;;;;;;;;;;4959717;28;20054;-74
2023/05/29 06:28:40;;;;;;;5.68;3.67;;;;;;;;;;4974589;28;20050;-75
2023/05/29 06:31:07;;;;;;;7.65;4.43;;;;;;;;;;4971827;28;20054;-74
2023/05/29 06:33:35;;;;;;;6.72;4.38;;;;;;;;;;4978201;28;20421;-74
2023/05/29 06:36:02;;;;;;;6.00;3.80;;;;;;;;;;4977994;28;20050;-74
2023/05/29 06:38:29;;;;;;;7.07;4.40;;;;;;;;;;4980292;28;20057;-75
2023/05/29 06:40:56;;;;;;;7.65;4.88;;;;;;;;;;4981725;28;20088;-74
2023/05/29 06:43:23;;;;;;;7.13;4.38;;;;;;;;;;4989961;28;20057;-74
2023/05/29 06:45:50;;;;;;;7.07;5.00;;;;;;;;;;4982222;28;20093;-73
2023/05/29 06:48:16;;;;;;;8.23;4.88;;;;;;;;;;4958055;28;20093;-74
2023/05/29 06:50:43;;;;;;;8.70;4.63;;;;;;;;;;4972968;28;20075;-75
2023/05/29 06:53:10;;;;;;;5.97;3.78;;;;;;;;;;4958303;28;20499;-75
2023/05/29 06:55:37;;;;;;;7.05;4.47;;;;;;;;;;4974087;28;20097;-75
2023/05/29 06:58:04;;;;;;;6.93;3.78;;;;;;;;;;4958098;28;20081;-75
2023/05/29 07:00:31;;;;;;;7.32;4.05;;;;;;;;;;4965962;28;20103;-79
2023/05/29 07:02:58;;;;;;;6.57;4.43;;;;;;;;;;4967079;28;20054;-80
2023/05/29 07:05:28;;;;;;;8.77;4.30;;;;;;;;;;4977273;28;20054;-80
2023/05/29 07:07:56;;;;;;;10.30;4.43;;;;;;;;;;4974225;28;20050;-80
2023/05/29 07:10:23;;;;;;;9.63;5.57;;;;;;;;;;4976614;28;20422;-75
2023/05/29 07:12:50;;;;;;;6.78;3.70;;;;;;;;;;4950100;28;20046;-79
2023/05/29 07:15:17;;;;;;;8.38;4.43;;;;;;;;;;4977976;28;20053;-80
2023/05/29 07:17:44;;;;;;;8.88;3.92;;;;;;;;;;4995614;28;20097;-80
2023/05/29 07:20:11;;;;;;;10.50;4.20;;;;;;;;;;4991710;28;20502;-79
2023/05/29 07:22:39;;;;;;;7.40;4.32;;;;;;;;;;4990622;28;20046;-78
2023/05/29 07:25:06;;;;;;;6.53;4.43;;;;;;;;;;4960535;28;20568;-80
2023/05/29 07:27:35;;;;;;;6.22;3.70;;;;;;;;;;4993113;28;20134;-79
2023/05/29 07:30:02;;;;;;;6.38;4.07;;;;;;;;;;4972741;28;20050;-78
2023/05/29 07:32:30;;;;;;;6.63;4.00;;;;;;;;;;4959803;28;20049;-77
2023/05/29 07:34:57;;;;;;;5.15;3.72;;;;;;;;;;4960884;28;20414;-76
2023/05/29 07:37:24;;;;;;;7.25;3.70;;;;;;;;;;4979182;28;20070;-77
2023/05/29 07:39:51;;;;;;;5.20;3.30;;;;;;;;;;4960485;28;20108;-78
2023/05/29 07:42:18;;;;;;;5.53;3.63;;;;;;;;;;4960889;28;20076;-77
2023/05/29 07:44:45;;;;;;;8.23;3.83;;;;;;;;;;4982917;28;20112;-88
2023/05/29 07:47:12;;;;;;;6.00;3.22;;;;;;;;;;4966394;28;20046;-75
2023/05/29 07:49:39;;;;;;;5.63;3.63;;;;;;;;;;5010437;28;20119;-74
2023/05/29 07:52:06;;;;;;;4.78;3.65;;;;;;;;;;4993685;28;20053;-75
2023/05/29 07:54:33;;;;;;;5.32;3.65;;;;;;;;;;4976502;28;20094;-75
2023/05/29 07:57:00;;;;;;;4.10;3.58;;;;;;;;;;4955243;28;20451;-75
2023/05/29 07:59:26;;;;;;;7.70;3.55;;;;;;;;;;4958221;28;20050;-75
2023/05/29 08:01:53;;;;;;;5.43;3.47;;;;;;;;;;4974263;28;20046;-74
2023/05/29 08:04:20;;;;;;;6.93;4.30;;;;;;;;;;4978571;28;20097;-74
2023/05/29 08:06:47;;;;;;;10.07;3.80;;;;;;;;;;4974295;28;20467;-75
2023/05/29 08:09:14;;;;;;;5.72;3.70;;;;;;;;;;4989677;28;20093;-75
2023/05/29 08:11:41;;;;;;;9.15;3.80;;;;;;;;;;4990178;28;20051;-75
2023/05/29 08:14:08;;;;;;;8.50;4.03;;;;;;;;;;4979172;28;20479;-76
2023/05/29 08:16:35;;;;;;;5.93;3.50;;;;;;;;;;4958936;28;20114;-76
2023/05/29 08:19:03;;;;;;;6.18;3.72;;;;;;;;;;4990346;28;20533;-75
2023/05/29 08:21:31;;;;;;;5.90;3.58;;;;;;;;;;4975402;28;20050;-79
2023/05/29 08:23:59;;;;;;;6.45;4.20;;;;;;;;;;4973030;28;20061;-74
2023/05/29 08:26:26;;;;;;;7.43;4.13;;;;;;;;;;4958808;28;20128;-75
2023/05/29 08:28:54;;;;;;;5.88;3.50;;;;;;;;;;4958468;28;20410;-75
2023/05/29 08:31:21;;;;;;;6.15;3.65;;;;;;;;;;4974132;28;20055;-75
2023/05/29 08:33:48;;;;;;;7.18;4.40;;;;;;;;;;4988044;28;20126;-76
2023/05/29 08:36:15;;;;;;;8.10;3.92;;;;;;;;;;4948186;28;20509;-76
2023/05/29 08:38:42;;;;;;;9.32;4.00;;;;;;;;;;4994134;28;20050;-75
2023/05/29 08:41:08;;;;;;;7.20;3.40;;;;;;;;;;4993861;28;20062;-75
2023/05/29 08:43:35;;;;;;;6.30;3.50;;;;;;;;;;4956369;28;20068;-75
2023/05/29 08:46:03;;;;;;;6.25;4.00;;;;;;;;;;4970170;28;20101;-75
2023/05/29 08:48:31;;;;;;;5.43;3.90;;;;;;;;;;4951215;28;20052;-75
2023/05/29 08:50:59;;;;;;;5.25;3.28;;;;;;;;;;4951147;28;20511;-75
2023/05/29 08:53:26;;;;;;;6.00;3.10;;;;;;;;;;4959711;28;20056;-75
2023/05/29 08:55:55;;;;;;;4.97;3.30;;;;;;;;;;4968067;28;20047;-75
2023/05/29 08:58:23;;;;;;;8.00;3.55;;;;;;;;;;4972844;28;20095;-75
2023/05/29 09:00:51;;;;;;;5.00;3.40;;;;;;;;;;4950283;28;20097;-75
2023/05/29 09:03:20;;;;;;;6.18;3.35;;;;;;;;;;4955829;28;20073;-75
2023/05/29 09:05:48;;;;;;;4.70;3.10;;;;;;;;;;4970135;28;20062;-75
2023/05/29 09:08:16;;;;;;;5.72;3.70;;;;;;;;;;4955886;28;20074;-75
2023/05/29 09:10:44;;;;;;;5.28;3.60;;;;;;;;;;4969944;28;20046;-75
2023/05/29 09:13:13;;;;;;;5.28;3.40;;;;;;;;;;4949893;28;20062;-76
2023/05/29 09:15:42;;;;;;;7.50;3.70;;;;;;;;;;4969965;28;20137;-75
2023/05/29 09:18:10;;;;;;;4.68;3.28;;;;;;;;;;4952021;28;20118;-75
2023/05/29 09:20:37;;;;;;;7.13;3.80;;;;;;;;;;4953797;28;20159;-75
2023/05/29 09:23:08;;;;;;;6.68;3.70;;;;;;;;;;4951229;28;20053;-75
2023/05/29 09:25:46;;;;;;;5.53;3.30;;;;;;;;;;4957948;28;20089;-75
2023/05/29 09:28:12;;;;;;;6.20;3.60;;;;;;;;;;4960063;28;20414;-75
2023/05/29 09:30:44;;;;;;;5.05;3.55;;;;;;;;;;4950629;28;20054;-75
2023/05/29 09:33:13;;;;;;;4.47;3.40;;;;;;;;;;4985986;28;20537;-75
2023/05/29 09:35:42;;;;;;;7.32;3.78;;;;;;;;;;4958106;28;20186;-76
2023/05/29 09:38:23;;;;;;;6.35;4.57;;;;;;;;;;4954624;28;20042;-76
2023/05/29 09:41:10;;;;;;;4.20;3.30;;;;;;;;;;4965538;28;20060;-76
2023/05/29 09:43:39;;;;;;;5.47;3.15;;;;;;;;;;4970496;28;20065;-75
2023/05/29 09:46:09;;;;;;;5.45;3.40;;;;;;;;;;4952881;28;20050;-75
2023/05/29 09:48:37;;;;;;;6.93;3.28;;;;;;;;;;4950722;28;20141;-76
2023/05/29 09:51:04;;;;;;;6.85;3.30;;;;;;;;;;4958296;28;20474;-76
2023/05/29 09:53:31;;;;;;;4.32;3.28;;;;;;;;;;4971856;28;20138;-75
2023/05/29 09:55:59;;;;;;;4.95;3.63;;;;;;;;;;4964079;28;20069;-75
2023/05/29 09:58:27;;;;;;;5.85;3.35;;;;;;;;;;4954440;28;20039;-75
2023/05/29 10:00:54;;;;;;;6.40;3.05;;;;;;;;;;4948530;28;20077;-76
2023/05/29 10:03:23;;;;;;;5.80;2.95;;;;;;;;;;4955935;28;20061;-76
2023/05/29 10:05:52;;;;;;;6.57;3.50;;;;;;;;;;4975445;28;20054;-76
2023/05/29 10:08:20;;;;;;;5.28;2.78;;;;;;;;;;4963971;28;20495;-76
2023/05/29 10:10:54;;;;;;;5.97;3.25;;;;;;;;;;4946332;28;20050;-76
2023/05/29 10:13:21;;;;;;;7.65;3.33;;;;;;;;;;4972617;28;20061;-74
2023/05/29 10:15:50;;;;;;;7.80;3.17;;;;;;;;;;4953117;28;20435;-73
2023/05/29 10:18:24;;;;;;;7.03;3.30;;;;;;;;;;4959071;28;21208;-73
2023/05/29 10:20:51;;;;;;;7.97;3.08;;;;;;;;;;4949629;28;20055;-74
2023/05/29 10:23:24;;;;;;;5.22;2.92;;;;;;;;;;4950744;28;20561;-74
2023/05/29 10:25:53;;;;;;;5.75;3.38;;;;;;;;;;4949880;28;20608;-74
2023/05/29 10:28:21;;;;;;;4.20;3.22;;;;;;;;;;4949019;28;20049;-73
2023/05/29 10:30:57;;;;;;;5.30;3.55;;;;;;;;;;4963356;28;20105;-73
2023/05/29 10:33:36;;;;;;;5.25;3.20;;;;;;;;;;4967620;28;21545;-73
2023/05/29 10:36:11;;;;;;;6.95;2.78;;;;;;;;;;5001486;28;20105;-72
2023/05/29 10:38:40;;;;;;;6.28;3.38;;;;;;;;;;5002828;28;20091;-72
2023/05/29 10:41:40;;;;;;;5.03;3.10;;;;;;;;;;4954541;28;20143;-72
2023/05/29 10:44:43;;;;;;;6.90;3.45;;;;;;;;;;4963895;28;20081;-72
2023/05/29 10:47:12;;;;;;;9.13;2.97;;;;;;;;;;4959934;28;20419;-72
2023/05/29 10:49:39;;;;;;;5.18;3.10;;;;;;;;;;4989242;28;20061;-72
2023/05/29 10:52:06;;;;;;;6.38;2.72;;;;;;;;;;4973838;28;20046;-73
2023/05/29 10:54:40;;;;;;;5.18;3.15;;;;;;;;;;4962290;28;20423;-73
2023/05/29 10:57:08;;;;;;;6.03;3.00;;;;;;;;;;4973183;28;20565;-72
2023/05/29 10:59:36;;;;;;;4.47;2.90;;;;;;;;;;4947212;28;20439;-72
2023/05/29 11:02:05;;;;;;;5.07;3.13;;;;;;;;;;4945280;28;20058;-72
2023/05/29 11:04:32;;;;;;;6.32;2.92;;;;;;;;;;4956599;28;20156;-73
2023/05/29 11:06:59;;;;;;;6.80;3.30;;;;;;;;;;4953484;28;20055;-74
2023/05/29 11:09:34;;;;;;;6.13;3.10;;;;;;;;;;4949326;28;20125;-74
2023/05/29 11:12:25;;;;;;;5.72;2.80;;;;;;;;;;4953221;28;20042;-74
2023/05/29 11:15:00;;;;;;;5.25;3.08;;;;;;;;;;4983757;28;20422;-74
2023/05/29 11:17:39;;;;;;;6.65;3.10;;;;;;;;;;4970671;28;20503;-76
2023/05/29 11:20:13;;;;;;;4.60;2.65;;;;;;;;;;4995944;28;20297;-77
2023/05/29 11:22:59;;;;;;;6.00;2.72;;;;;;;;;;4955656;28;20054;-76
2023/05/29 11:25:27;;;;;;;6.70;2.55;;;;;;;;;;4995438;28;20047;-76
2023/05/29 11:27:57;;;;;;;4.05;2.53;;;;;;;;;;4959524;28;20089;-77
2023/05/29 11:30:24;;;;;;;5.80;3.30;;;;;;;;;;4946693;28;20178;-76
2023/05/29 11:32:52;;;;;;;5.22;2.67;;;;;;;;;;4966320;28;20050;-75
2023/05/29 11:35:22;;;;;;;4.18;2.70;;;;;;;;;;4946072;28;20061;-76
2023/05/29 11:37:50;;;;;;;3.88;2.22;;;;;;;;;;4945411;28;20187;-75
2023/05/29 11:40:17;;;;;;;3.00;2.13;;;;;;;;;;4956696;28;20125;-75
2023/05/29 11:42:48;;;;;;;4.00;2.70;;;;;;;;;;4946288;28;20065;-75
2023/05/29 11:45:21;;;;;;;3.97;2.30;;;;;;;;;;4968761;28;20057;-76
2023/05/29 11:47:59;;;;;;;9.73;3.10;;;;;;;;;;4968563;28;20054;-75
2023/05/29 11:50:28;;;;;;;3.53;2.63;;;;;;;;;;4986715;28;20494;-75
2023/05/29 11:52:56;;;;;;;4.65;2.38;;;;;;;;;;4981859;28;20050;-75
2023/05/29 11:55:24;;;;;;;4.53;2.97;;;;;;;;;;4972836;28;20042;-74
2023/05/29 11:57:56;;;;;;;5.47;2.78;;;;;;;;;;4985263;28;20422;-75
2023/05/29 12:00:24;;;;;;;3.20;2.47;;;;;;;;;;4954315;28;20054;-75
2023/05/29 12:02:51;;;;;;;5.55;2.60;;;;;;;;;;4965169;28;20474;-74
2023/05/29 12:05:18;;;;;;;4.22;2.60;;;;;;;;;;4951377;28;20579;-75
2023/05/29 12:07:52;;;;;;;5.25;2.42;;;;;;;;;;4979897;28;20089;-75
2023/05/29 12:10:20;;;;;;;3.63;2.53;;;;;;;;;;4967140;28;20051;-74
2023/05/29 12:12:49;;;;;;;3.40;2.60;;;;;;;;;;4990298;28;20420;-75
2023/05/29 12:15:18;;;;;;;5.25;3.35;;;;;;;;;;4967543;28;20042;-75
2023/05/29 12:17:45;;;;;;;5.18;2.85;;;;;;;;;;4983958;28;20073;-74
2023/05/29 12:20:13;;;;;;;4.65;2.50;;;;;;;;;;4958987;28;20054;-75
2023/05/29 12:22:42;;;;;;;4.40;3.20;;;;;;;;;;4954135;28;20046;-75
2023/05/29 12:25:15;;;;;;;4.28;2.60;;;;;;;;;;4950559;28;20050;-75
2023/05/29 12:27:46;;;;;;;2.28;1.92;;;;;;;;;;4961026;28;20065;-75
2023/05/29 12:30:16;;;;;;;5.15;2.47;;;;;;;;;;4980002;28;20050;-75
2023/05/29 12:32:59;;;;;;;3.53;2.85;;;;;;;;;;4978771;28;20055;-76
2023/05/29 12:35:28;;;;;;;3.45;2.65;;;;;;;;;;4983043;28;20078;-74
2023/05/29 12:38:01;;;;;;;5.05;2.75;;;;;;;;;;4969328;28;20084;-74
2023/05/29 12:40:29;;;;;;;3.72;2.72;;;;;;;;;;4988897;28;20062;-74
2023/05/29 12:43:02;;;;;;;3.13;2.60;;;;;;;;;;4957445;28;20110;-74
2023/05/29 12:45:31;;;;;;;4.68;2.40;;;;;;;;;;4983416;28;20692;-74
2023/05/29 12:48:05;;;;;;;3.30;2.83;;;;;;;;;;4985107;28;20097;-76
2023/05/29 12:50:34;;;;;;;3.15;2.45;;;;;;;;;;4979843;28;20101;-75
2023/05/29 12:53:01;;;;;;;4.78;2.67;;;;;;;;;;4993882;28;20050;-75
2023/05/29 12:55:30;;;;;;;3.10;2.60;;;;;;;;;;4967488;28;20105;-75
2023/05/29 12:57:57;;;;;;;3.78;2.65;;;;;;;;;;4973553;28;20073;-74
2023/05/29 13:00:24;;;;;;;3.75;2.55;;;;;;;;;;4987895;28;20090;-75
2023/05/29 13:02:51;;;;;;;3.53;2.78;;;;;;;;;;4950155;28;20550;-74
2023/05/29 13:05:18;;;;;;;3.85;2.58;;;;;;;;;;4990403;28;20049;-74
2023/05/29 13:07:51;;;;;;;3.70;2.33;;;;;;;;;;4948040;28;20055;-76
2023/05/29 13:10:19;;;;;;;3.63;2.70;;;;;;;;;;4959632;28;20042;-75
2023/05/29 13:12:46;;;;;;;3.80;2.15;;;;;;;;;;4954696;28;20050;-75
2023/05/29 13:15:14;;;;;;;2.90;2.60;;;;;;;;;;4967295;28;20108;-76
2023/05/29 13:17:41;;;;;;;9.25;3.33;;;;;;;;;;4949992;28;20526;-77
2023/05/29 13:20:12;;;;;;;2.30;2.10;;;;;;;;;;4960108;28;20407;-76
2023/05/29 13:22:39;;;;;;;3.13;2.70;;;;;;;;;;4978028;28;20502;-80
2023/05/29 13:25:09;;;;;;;4.72;2.50;;;;;;;;;;4975042;28;20054;-78
2023/05/29 13:27:37;;;;;;;3.28;2.30;;;;;;;;;;4945822;28;20054;-78
2023/05/29 13:30:05;;;;;;;2.90;2.60;;;;;;;;;;4969139;28;20079;-78
2023/05/29 13:32:32;;;;;;;4.82;2.35;;;;;;;;;;4959577;28;20458;-77
2023/05/29 13:34:59;;;;;;;3.15;2.70;;;;;;;;;;4962993;28;20042;-79
2023/05/29 13:37:27;;;;;;;5.97;2.05;;;;;;;;;;4960811;28;20510;-78
2023/05/29 13:39:54;;;;;;;5.63;2.65;;;;;;;;;;4961413;28;20086;-78
2023/05/29 13:42:21;;;;;;;4.47;2.78;;;;;;;;;;4978038;28;20541;-77
2023/05/29 13:44:51;;;;;;;3.03;2.45;;;;;;;;;;4993250;28;20050;-78
2023/05/29 13:47:18;;;;;;;2.55;2.20;;;;;;;;;;4980831;28;20116;-77
2023/05/29 13:49:45;;;;;;;5.50;2.70;;;;;;;;;;4959951;28;20503;-78
2023/05/29 13:52:12;;;;;;;3.03;2.60;;;;;;;;;;4960215;28;20073;-77
2023/05/29 13:54:39;;;;;;;4.18;2.40;;;;;;;;;;4992055;28;20046;-78
2023/05/29 13:57:06;;;;;;;5.28;2.38;;;;;;;;;;4960047;28;20046;-77
2023/05/29 13:59:34;;;;;;;3.00;2.58;;;;;;;;;;4992779;28;20047;-77
2023/05/29 14:02:02;;;;;;;4.53;2.60;;;;;;;;;;4980631;28;20050;-78
2023/05/29 14:04:29;;;;;;;4.63;2.45;;;;;;;;;;4991827;28;20058;-78
2023/05/29 14:06:57;;;;;;;3.00;2.55;;;;;;;;;;5007981;28;20565;-77
2023/05/29 14:09:27;;;;;;;3.60;2.55;;;;;;;;;;4960135;28;20049;-78
2023/05/29 14:11:55;;;;;;;2.92;2.55;;;;;;;;;;4990440;28;20052;-78
2023/05/29 14:14:22;;;;;;;3.33;2.20;;;;;;;;;;4968826;28;20108;-78
2023/05/29 14:16:49;;;;;;;3.45;2.72;;;;;;;;;;4960494;28;20046;-78
2023/05/29 14:19:17;;;;;;;4.70;3.00;;;;;;;;;;4987903;28;20046;-78
2023/05/29 14:21:45;;;;;;;6.55;2.88;;;;;;;;;;4966535;28;20042;-78
2023/05/29 14:24:13;;;;;;;2.90;2.50;;;;;;;;;;4966653;28;20051;-77
2023/05/29 14:26:41;;;;;;;3.50;2.03;;;;;;;;;;4960405;28;20065;-77
2023/05/29 14:29:08;;;;;;;3.65;2.30;;;;;;;;;;4976512;28;20054;-77
2023/05/29 14:31:41;;;;;;;6.13;2.45;;;;;;;;;;4976767;28;20104;-77
2023/05/29 14:34:09;;;;;;;5.80;2.67;;;;;;;;;;4961755;28;20050;-80
2023/05/29 14:36:36;;;;;;;3.20;2.55;;;;;;;;;;4984260;28;20050;-79
2023/05/29 14:39:04;;;;;;;2.58;2.15;;;;;;;;;;4980368;28;20042;-77
2023/05/29 14:41:30;;;;;;;2.85;2.28;;;;;;;;;;4965263;28;20054;-78
2023/05/29 14:43:58;;;;;;;5.47;2.08;;;;;;;;;;4981117;28;20141;-76
2023/05/29 14:46:26;;;;;;;3.38;2.13;;;;;;;;;;4959813;28;20423;-74
2023/05/29 14:48:54;;;;;;;2.55;2.35;;;;;;;;;;4959873;28;20471;-74
2023/05/29 14:51:21;;;;;;;3.92;2.25;;;;;;;;;;4979440;28;20050;-74